RPVM

Mactan Cebu International Airport

Lapu-Lapu City, Philippines
TAF RPVM 221100Z 2212/2318 36007KT 9999 FEW020 BKN100 TEMPO 2212/2218 -SHRA SCT020 BKN090 TEMPO 2302/2308 03012KT 8000 -SHRA FEW018CB SCT020 BKN100
Issued Valid From Valid To
Jan-22 @ 11:00 UTC
(6 hours ago)
Jan-22 @ 12:00 UTC
(5 hours ago)
Jan-23 @ 18:00 UTC
(-1 days ago)
Jan-22 @ 12:00 to Jan-23 @ 18:00
TAF RPVM 221100Z 2212/2318 36007KT 9999 FEW020 BKN100
Wind Visibility Clouds
360° at 7 knots 10,000+ meters
  • Few at 2,000' AGL
  • Broken at 10,000' AGL
Temporary Jan-22 @ 12:00 to Jan-22 @ 18:00
TEMPO 2212/2218 -SHRA SCT020 BKN090
Clouds Conditions
  • Scattered at 2,000' AGL
  • Broken at 9,000' AGL
  • Light Rain
Temporary Jan-23 @ 02:00 to Jan-23 @ 08:00
TEMPO 2302/2308 03012KT 8000 -SHRA FEW018CB SCT020 BKN100
Wind Visibility Clouds Conditions
30° at 12 knots 7,998 meters
  • Few at 1,800' AGL
  • Scattered at 2,000' AGL
  • Broken at 10,000' AGL
  • Light Rain
TAF RPVM 221100Z 2212/2318 36007KT 9999 FEW020 BKN100 TEMPO 2212/2218 -SHRA SCT020 BKN090 TEMPO 2302/2308 03012KT 8000 -SHRA FEW018CB SCT020 BKN100
Issued Jan-22 @ 11:00 UTC
(6 hours ago)
Valid From Jan-22 @ 12:00 UTC
(5 hours ago)
Valid To Jan-23 @ 18:00 UTC
(-1 days ago)
Jan-22 @ 12:00 - Jan-23 @ 18:00
Wind Visibility
360° at 7 knots 10,000+ meters
Clouds
  • Few at 2,000' AGL
  • Broken at 10,000' AGL
Temporary Jan-22 @ 12:00 - Jan-22 @ 18:00
Clouds
  • Scattered at 2,000' AGL
  • Broken at 9,000' AGL
Conditions
  • Light Rain
Temporary Jan-23 @ 02:00 - Jan-23 @ 08:00
Wind Visibility
30° at 12 knots 7,998 meters
Clouds
  • Few at 1,800' AGL
  • Scattered at 2,000' AGL
  • Broken at 10,000' AGL
Conditions
  • Light Rain